Earlton, Canada
Current Conditions -  °F | °C
As of 12:00 AM on Tuesday 21 Oct 2014 (Local Time) from CYXR Reporting Station
Overcast Overcast  
Wind Chill: 32°   Ceiling: 6000
Heat Index: 37°   Visibility: 9mi
Dew Point: 36°   Wind: 7mph
Humidity: 93%   Direction: 350°N
Pressure: 29.97"   Gusts: NA
Location:  47.71°N, 79.82°W
Report Text: CYXR 210400Z AUTO 35006KT 9SM FEW038 BKN060 OVC073 03/02 A2997 RMK SLP160
Loading
Personal Weather Stations






























Interactive Weather Map New forecast layout! Learn more

10-Day Weather Forecast

Advertisements
Track Severe Weather on mobile